createdAt,value
2018-03-01T00:00:23.271Z,7.90
2018-03-01T00:02:50.792Z,6.47
2018-03-01T00:05:18.340Z,7.43
2018-03-01T00:07:45.864Z,5.80
2018-03-01T00:10:13.403Z,7.87
2018-03-01T00:12:41.308Z,7.17
2018-03-01T00:15:08.844Z,6.93
2018-03-01T00:17:36.747Z,7.80
2018-03-01T00:20:04.283Z,7.70
2018-03-01T00:22:36.810Z,6.80
2018-03-01T00:25:04.334Z,7.20
2018-03-01T00:27:31.880Z,5.77
2018-03-01T00:29:59.427Z,6.97
2018-03-01T00:32:26.938Z,7.43
2018-03-01T00:34:54.458Z,6.50
2018-03-01T00:37:21.999Z,6.17
2018-03-01T00:39:49.527Z,4.80
2018-03-01T00:42:17.083Z,5.17
2018-03-01T00:44:44.608Z,6.47
2018-03-01T00:47:12.139Z,6.00
2018-03-01T00:49:39.652Z,5.13
2018-03-01T00:52:07.179Z,6.67
2018-03-01T00:54:34.686Z,5.77
2018-03-01T00:57:02.608Z,5.00
2018-03-01T00:59:30.219Z,7.20
2018-03-01T01:01:58.161Z,7.00
2018-03-01T01:04:25.672Z,6.20
2018-03-01T01:06:53.208Z,6.83
2018-03-01T01:09:21.124Z,6.40
2018-03-01T01:11:48.654Z,6.00
2018-03-01T01:14:16.171Z,8.27
2018-03-01T01:16:44.109Z,6.47
2018-03-01T01:19:11.618Z,8.20
2018-03-01T01:21:39.160Z,7.90
2018-03-01T01:24:06.697Z,6.53
2018-03-01T01:26:34.250Z,5.40
2018-03-01T01:29:01.872Z,7.47
2018-03-01T01:31:29.400Z,5.97
2018-03-01T01:33:57.336Z,7.23
2018-03-01T01:36:24.868Z,8.07
2018-03-01T01:38:52.399Z,6.73
2018-03-01T01:41:19.919Z,6.27
2018-03-01T01:43:47.855Z,8.60
2018-03-01T01:46:15.385Z,7.97
2018-03-01T01:48:42.916Z,6.53
2018-03-01T01:51:10.831Z,7.50
2018-03-01T01:53:38.376Z,7.37
2018-03-01T01:56:05.889Z,7.80
2018-03-01T01:58:33.422Z,5.97
2018-03-01T02:01:00.932Z,6.67
2018-03-01T02:03:28.468Z,8.00
2018-03-01T02:05:56.383Z,5.77
2018-03-01T02:08:23.932Z,8.23
2018-03-01T02:10:51.594Z,6.67
2018-03-01T02:13:19.114Z,6.60
2018-03-01T02:15:47.051Z,7.57
2018-03-01T02:18:14.595Z,10.10
2018-03-01T02:20:42.130Z,7.00
2018-03-01T02:23:09.662Z,8.37
2018-03-01T02:25:37.596Z,7.93
2018-03-01T02:28:05.120Z,8.43
2018-03-01T02:30:32.648Z,7.93
2018-03-01T02:33:00.571Z,8.47
2018-03-01T02:35:28.104Z,7.33
2018-03-01T02:37:55.630Z,7.17
2018-03-01T02:40:23.572Z,6.40
2018-03-01T02:42:51.117Z,8.93
2018-03-01T02:45:18.659Z,7.67
2018-03-01T02:47:46.183Z,7.40
2018-03-01T02:50:13.743Z,8.83
2018-03-01T02:52:41.264Z,6.13
2018-03-01T02:55:08.785Z,8.20
2018-03-01T02:57:36.343Z,7.53
2018-03-01T03:00:03.867Z,7.87
2018-03-01T03:02:31.808Z,5.87
2018-03-01T03:04:59.435Z,9.27
2018-03-01T03:07:26.969Z,7.90
2018-03-01T03:09:54.487Z,7.77
2018-03-01T03:12:22.023Z,8.43
2018-03-01T03:14:49.540Z,8.60
2018-03-01T03:17:17.083Z,8.57
2018-03-01T03:19:44.999Z,8.70
2018-03-01T03:22:12.535Z,9.43
2018-03-01T03:24:40.055Z,6.67
2018-03-01T03:27:07.983Z,7.53
2018-03-01T03:29:35.504Z,7.17
2018-03-01T03:32:03.016Z,6.80
2018-03-01T03:34:30.540Z,9.23
2018-03-01T03:36:58.052Z,9.57
2018-03-01T03:39:25.992Z,9.20
2018-03-01T03:41:53.909Z,6.77
2018-03-01T03:44:21.466Z,9.03
2018-03-01T03:46:48.974Z,7.33
2018-03-01T03:49:16.507Z,8.27
2018-03-01T03:51:44.053Z,8.90
2018-03-01T03:54:11.600Z,9.30
2018-03-01T03:56:39.115Z,9.37
2018-03-01T03:59:06.672Z,8.40
2018-03-01T04:01:34.198Z,8.33
2018-03-01T04:04:16.914Z,7.73
2018-03-01T04:06:44.432Z,8.10
2018-03-01T04:09:12.420Z,9.37
2018-03-01T04:11:39.968Z,8.30
2018-03-01T04:14:07.489Z,6.57
2018-03-01T04:16:35.101Z,9.03
2018-03-01T04:19:02.718Z,9.13
2018-03-01T04:21:30.660Z,6.70
2018-03-01T04:23:58.192Z,8.47
2018-03-01T04:26:25.756Z,8.00
2018-03-01T04:28:53.280Z,6.87
2018-03-01T04:31:21.212Z,7.80
2018-03-01T04:33:48.736Z,8.07
2018-03-01T04:36:16.259Z,7.40
2018-03-01T04:38:44.267Z,7.50
2018-03-01T04:41:11.787Z,8.87
2018-03-01T04:43:39.784Z,9.60
2018-03-01T04:46:07.287Z,7.63
2018-03-01T04:48:34.827Z,7.37
2018-03-01T04:51:02.482Z,8.93
2018-03-01T04:53:30.024Z,8.07
2018-03-01T04:55:57.545Z,7.77
2018-03-01T04:58:25.475Z,6.23
2018-03-01T05:00:52.991Z,7.33
2018-03-01T05:03:20.552Z,6.87
2018-03-01T05:05:48.063Z,8.07
2018-03-01T05:08:15.619Z,8.63
2018-03-01T05:10:43.224Z,7.90
2018-03-01T05:13:10.788Z,10.90
2018-03-01T05:15:38.331Z,10.13
2018-03-01T05:18:05.868Z,8.10
2018-03-01T05:20:33.795Z,10.03
2018-03-01T05:23:01.319Z,9.27
2018-03-01T05:25:28.861Z,8.40
2018-03-01T05:27:56.877Z,8.10
2018-03-01T05:30:24.417Z,5.70
2018-03-01T05:32:52.020Z,10.90
2018-03-01T05:35:19.567Z,9.83
2018-03-01T05:37:47.090Z,9.87
2018-03-01T05:40:14.699Z,9.83
2018-03-01T05:42:42.620Z,10.53
2018-03-01T05:45:10.153Z,9.13
2018-03-01T05:47:38.065Z,8.90
2018-03-01T05:50:05.643Z,10.13
2018-03-01T05:52:33.163Z,8.27
2018-03-01T05:55:00.699Z,8.37
2018-03-01T05:57:28.296Z,9.00
2018-03-01T05:59:55.823Z,11.23
2018-03-01T06:02:23.355Z,8.37
2018-03-01T06:04:50.917Z,10.13
2018-03-01T06:07:18.912Z,8.67
2018-03-01T06:09:46.440Z,11.17
2018-03-01T06:12:14.360Z,8.37
2018-03-01T06:14:41.868Z,9.93
2018-03-01T06:17:09.804Z,10.97
2018-03-01T06:19:37.318Z,9.47
2018-03-01T06:22:04.858Z,7.23
2018-03-01T06:24:32.436Z,9.27
2018-03-01T06:26:59.976Z,9.80
2018-03-01T06:29:27.505Z,8.57
2018-03-01T06:31:55.038Z,7.57
2018-03-01T06:34:22.551Z,8.67
2018-03-01T06:36:50.083Z,7.23
2018-03-01T06:39:17.586Z,9.07
2018-03-01T06:41:45.160Z,9.80
2018-03-01T06:44:12.688Z,9.23
2018-03-01T06:46:40.251Z,8.87
2018-03-01T06:49:07.822Z,8.80
2018-03-01T06:51:35.747Z,12.87
2018-03-01T06:54:03.664Z,9.83
2018-03-01T06:56:31.200Z,12.30
2018-03-01T06:58:58.758Z,9.03
2018-03-01T07:01:26.296Z,8.63
2018-03-01T07:03:54.252Z,9.83
2018-03-01T07:06:21.778Z,8.50
2018-03-01T07:08:49.322Z,10.00
2018-03-01T07:11:16.986Z,8.80
2018-03-01T07:13:44.524Z,10.10
2018-03-01T07:16:12.040Z,9.40
2018-03-01T07:18:39.586Z,11.57
2018-03-01T07:21:07.114Z,7.43
2018-03-01T07:23:34.663Z,9.40
2018-03-01T07:26:02.192Z,9.53
2018-03-01T07:28:30.130Z,9.33
2018-03-01T07:30:57.671Z,10.33
2018-03-01T07:33:25.208Z,8.13
2018-03-01T07:35:52.723Z,10.83
2018-03-01T07:38:20.737Z,11.17
2018-03-01T07:40:48.288Z,12.73
2018-03-01T07:43:16.568Z,10.40
2018-03-01T07:45:44.111Z,11.50
2018-03-01T07:48:11.632Z,11.47
2018-03-01T07:50:39.226Z,9.97
2018-03-01T07:53:06.747Z,10.17
2018-03-01T07:55:34.275Z,9.70
2018-03-01T07:58:01.816Z,8.17
2018-03-01T08:00:29.392Z,12.47
2018-03-01T08:02:56.906Z,9.40
2018-03-01T08:05:25.470Z,11.67
2018-03-01T08:07:53.152Z,8.43
2018-03-01T08:10:20.711Z,9.80
2018-03-01T08:12:48.644Z,9.87
2018-03-01T08:15:16.252Z,8.47
2018-03-01T08:17:43.780Z,10.00
2018-03-01T08:20:11.712Z,9.57
2018-03-01T08:22:39.633Z,9.10
2018-03-01T08:25:07.214Z,8.17
2018-03-01T08:27:34.768Z,8.23
2018-03-01T08:30:02.297Z,10.53
2018-03-01T08:32:30.228Z,9.23
2018-03-01T08:34:57.747Z,12.47
2018-03-01T08:37:25.355Z,8.57
2018-03-01T08:39:52.936Z,12.40
2018-03-01T08:42:20.880Z,7.13
2018-03-01T08:44:48.408Z,9.23
2018-03-01T08:47:15.954Z,9.83
2018-03-01T08:49:43.484Z,13.10
2018-03-01T08:52:11.480Z,10.13
2018-03-01T08:54:39.003Z,12.30
2018-03-01T08:57:06.553Z,9.97
2018-03-01T08:59:34.075Z,11.97
2018-03-01T09:02:01.598Z,8.87
2018-03-01T09:04:29.140Z,12.37
2018-03-01T09:06:57.056Z,10.60
2018-03-01T09:09:24.603Z,13.67
2018-03-01T09:11:52.131Z,11.03
2018-03-01T09:14:19.678Z,14.90
2018-03-01T09:16:47.690Z,13.13
2018-03-01T09:19:15.227Z,14.00
2018-03-01T09:21:42.747Z,13.00
2018-03-01T09:24:10.317Z,11.80
2018-03-01T09:26:38.221Z,13.30
2018-03-01T09:29:05.769Z,14.53
2018-03-01T09:31:33.340Z,10.37
2018-03-01T09:34:00.896Z,10.57
2018-03-01T09:36:28.453Z,11.10
2018-03-01T09:38:55.976Z,12.83
2018-03-01T09:41:23.906Z,9.57
2018-03-01T09:43:51.438Z,12.33
2018-03-01T09:46:18.996Z,12.63
2018-03-01T09:48:46.499Z,13.77
2018-03-01T09:51:14.060Z,13.33
2018-03-01T09:53:41.571Z,12.13
2018-03-01T09:56:09.124Z,13.37
2018-03-01T09:58:36.636Z,12.57
2018-03-01T10:01:04.168Z,10.63
2018-03-01T10:03:31.687Z,14.03
2018-03-01T10:05:59.212Z,12.40
2018-03-01T10:08:26.822Z,14.00
2018-03-01T10:10:54.486Z,12.37
2018-03-01T10:13:21.999Z,14.00
2018-03-01T10:15:49.923Z,13.97
2018-03-01T10:18:17.449Z,14.63
2018-03-01T10:20:44.989Z,15.03
2018-03-01T10:23:12.895Z,8.57
2018-03-01T10:25:40.427Z,14.20
2018-03-01T10:28:07.953Z,10.27
2018-03-01T10:30:35.873Z,12.33
2018-03-01T10:33:03.426Z,11.67
2018-03-01T10:35:30.941Z,12.67
2018-03-01T10:37:58.956Z,13.10
2018-03-01T10:40:26.469Z,9.77
2018-03-01T10:42:54.412Z,13.50
2018-03-01T10:45:21.917Z,13.20
2018-03-01T10:47:49.461Z,13.00
2018-03-01T10:50:17.371Z,14.93
2018-03-01T10:52:44.902Z,12.30
2018-03-01T10:55:12.496Z,13.50
2018-03-01T10:57:40.021Z,8.90
2018-03-01T11:00:07.541Z,10.53
2018-03-01T11:02:35.163Z,11.43
2018-03-01T11:05:02.682Z,11.53
2018-03-01T11:07:30.623Z,12.77
2018-03-01T11:09:58.143Z,10.13
2018-03-01T11:12:28.839Z,13.63
2018-03-01T11:14:56.743Z,12.83
2018-03-01T11:17:24.249Z,9.93
2018-03-01T11:19:51.805Z,12.97
2018-03-01T11:22:19.326Z,12.67
2018-03-01T11:24:46.850Z,11.93
2018-03-01T11:27:14.358Z,11.37
2018-03-01T11:29:41.963Z,11.13
2018-03-01T11:32:09.477Z,13.23
2018-03-01T11:34:37.036Z,10.83
2018-03-01T11:37:04.544Z,13.67
2018-03-01T11:39:32.084Z,11.50
2018-03-01T11:42:00.088Z,9.60
2018-03-01T11:44:27.635Z,11.47
2018-03-01T11:46:55.167Z,10.43
2018-03-01T11:49:23.109Z,12.20
2018-03-01T11:51:50.623Z,10.80
2018-03-01T11:54:18.160Z,11.10
2018-03-01T11:56:46.062Z,10.93
2018-03-01T11:59:13.706Z,11.13
2018-03-01T12:01:41.233Z,10.43
2018-03-01T12:04:09.177Z,10.00
2018-03-01T12:06:36.712Z,9.73
2018-03-01T12:09:04.230Z,13.27
2018-03-01T12:11:31.814Z,10.40
2018-03-01T12:13:59.324Z,11.20
2018-03-01T12:16:27.265Z,11.67
2018-03-01T12:18:54.807Z,10.97
2018-03-01T12:21:22.346Z,10.37
2018-03-01T12:23:49.869Z,12.13
2018-03-01T12:26:17.807Z,11.83
2018-03-01T12:28:45.429Z,11.27
2018-03-01T12:31:13.028Z,12.20
2018-03-01T12:33:40.652Z,11.73
2018-03-01T12:36:08.214Z,11.83
2018-03-01T12:38:35.736Z,11.10
2018-03-01T12:41:03.659Z,9.47
2018-03-01T12:43:31.189Z,11.50
2018-03-01T12:45:58.757Z,11.50
2018-03-01T12:48:26.649Z,9.53
2018-03-01T12:50:54.155Z,11.90
2018-03-01T12:53:22.147Z,11.97
2018-03-01T12:55:49.701Z,10.80
2018-03-01T12:58:17.244Z,11.83
2018-03-01T13:00:44.780Z,11.27
2018-03-01T13:03:12.732Z,10.57
2018-03-01T13:05:40.250Z,11.00
2018-03-01T13:08:07.787Z,11.13
2018-03-01T13:10:35.303Z,12.47
2018-03-01T13:13:02.841Z,11.07
2018-03-01T13:15:30.372Z,11.67
2018-03-01T13:17:57.919Z,10.30
2018-03-01T13:20:25.444Z,12.03
2018-03-01T13:22:52.964Z,11.60
2018-03-01T13:25:20.496Z,13.53
2018-03-01T13:27:48.009Z,9.20
2018-03-01T13:30:21.276Z,12.07
2018-03-01T13:35:52.595Z,11.47
2018-03-01T13:38:20.504Z,12.53
2018-03-01T13:40:48.051Z,11.57
2018-03-01T13:43:16.057Z,10.77
2018-03-01T13:45:43.647Z,11.93
2018-03-01T13:48:11.559Z,12.27
2018-03-01T13:50:39.107Z,11.33
2018-03-01T13:53:06.631Z,11.47
2018-03-01T13:55:34.569Z,11.53
2018-03-01T13:58:02.095Z,12.07
2018-03-01T14:00:29.627Z,12.57
2018-03-01T14:02:57.139Z,11.20
2018-03-01T14:05:24.672Z,11.03
2018-03-01T14:08:01.579Z,14.37
2018-03-01T14:10:29.143Z,12.33
2018-03-01T14:13:00.388Z,12.47
2018-03-01T14:15:27.924Z,11.17
2018-03-01T14:18:01.144Z,12.00
2018-03-01T14:20:29.077Z,11.17
2018-03-01T14:23:00.452Z,15.60
2018-03-01T14:25:30.827Z,12.07
2018-03-01T14:27:59.936Z,13.87
2018-03-01T14:30:29.000Z,11.40
2018-03-01T14:32:56.559Z,12.00
2018-03-01T14:38:46.628Z,11.97
2018-03-01T14:41:14.172Z,11.93
2018-03-01T14:43:41.700Z,11.53
2018-03-01T14:46:09.358Z,12.37
2018-03-01T14:48:36.888Z,12.57
2018-03-01T14:51:05.060Z,12.00
2018-03-01T14:53:32.965Z,11.70
2018-03-01T14:56:00.517Z,12.00
2018-03-01T14:58:28.061Z,11.57
2018-03-01T15:00:55.664Z,12.17
2018-03-01T15:03:23.200Z,11.57
2018-03-01T15:05:50.790Z,14.87
2018-03-01T15:08:18.356Z,11.67
2018-03-01T15:10:46.074Z,13.63
2018-03-01T15:13:13.608Z,11.93
2018-03-01T15:15:41.174Z,15.47
2018-03-01T15:18:08.728Z,13.20
2018-03-01T15:20:36.303Z,11.33
2018-03-01T15:23:03.844Z,15.13
2018-03-01T15:25:31.368Z,11.20
2018-03-01T15:27:58.911Z,12.00
2018-03-01T15:30:26.441Z,11.83
2018-03-01T15:32:53.975Z,14.80
2018-03-01T15:35:21.504Z,14.43
2018-03-01T15:37:49.111Z,15.03
2018-03-01T15:40:16.632Z,13.17
2018-03-01T15:42:45.028Z,15.10
2018-03-01T15:45:12.597Z,12.47
2018-03-01T15:47:40.102Z,12.63
2018-03-01T15:50:07.663Z,14.40
2018-03-01T15:52:35.167Z,13.10
2018-03-01T15:55:02.703Z,12.57
2018-03-01T15:57:30.630Z,13.90
2018-03-01T15:59:58.275Z,11.77
2018-03-01T16:02:25.796Z,15.63
2018-03-01T16:04:53.356Z,11.27
2018-03-01T16:07:21.747Z,14.93
2018-03-01T16:09:49.322Z,12.57
2018-03-01T16:12:16.848Z,12.23
2018-03-01T16:14:44.432Z,14.13
2018-03-01T16:17:11.976Z,11.80
2018-03-01T16:19:39.523Z,16.27
2018-03-01T16:22:07.454Z,13.03
2018-03-01T16:24:34.984Z,12.13
2018-03-01T16:27:02.496Z,13.17
2018-03-01T16:29:30.651Z,15.07
2018-03-01T16:31:58.192Z,12.20
2018-03-01T16:34:25.742Z,12.77
2018-03-01T16:36:53.351Z,15.60
2018-03-01T16:39:21.275Z,13.03
2018-03-01T16:41:48.820Z,11.73
2018-03-01T16:44:16.393Z,14.87
2018-03-01T16:46:43.935Z,14.20
2018-03-01T16:49:11.555Z,14.30
2018-03-01T16:51:39.480Z,14.33
2018-03-01T16:54:07.006Z,15.73
2018-03-01T16:56:34.567Z,14.27
2018-03-01T16:59:02.203Z,15.67
2018-03-01T17:01:29.723Z,13.93
2018-03-01T17:03:57.356Z,13.47
2018-03-01T17:06:24.878Z,12.67
2018-03-01T17:08:53.007Z,17.07
2018-03-01T17:11:20.516Z,12.07
2018-03-01T17:13:48.059Z,16.50
2018-03-01T17:16:15.987Z,13.77
2018-03-01T17:18:43.638Z,17.27
2018-03-01T17:21:11.159Z,14.73
2018-03-01T17:23:38.738Z,13.47
2018-03-01T17:26:06.324Z,13.60
2018-03-01T17:28:33.873Z,15.13
2018-03-01T17:31:01.406Z,13.57
2018-03-01T17:33:28.980Z,13.67
2018-03-01T17:35:56.528Z,15.90
2018-03-01T17:38:24.035Z,14.17
2018-03-01T17:40:51.569Z,18.00
2018-03-01T17:43:19.100Z,13.07
2018-03-01T17:45:46.639Z,14.47
2018-03-01T17:48:14.168Z,14.20
2018-03-01T17:54:03.432Z,13.27
2018-03-01T17:56:30.972Z,15.60
2018-03-01T17:58:58.488Z,14.43
2018-03-01T18:01:26.430Z,15.37
2018-03-01T18:03:54.365Z,13.67
2018-03-01T18:06:21.926Z,15.70
2018-03-01T18:08:49.436Z,14.70
2018-03-01T18:11:17.396Z,14.50
2018-03-01T18:13:45.315Z,16.53
2018-03-01T18:16:12.872Z,14.70
2018-03-01T18:18:40.399Z,14.00
2018-03-01T18:21:07.971Z,15.77
2018-03-01T18:23:35.499Z,14.93
2018-03-01T18:26:03.456Z,17.87
2018-03-01T18:28:31.027Z,14.70
2018-03-01T18:30:58.989Z,15.30
2018-03-01T18:33:26.903Z,15.90
2018-03-01T18:35:54.567Z,13.37
2018-03-01T18:38:22.100Z,14.27
2018-03-01T18:40:49.644Z,14.77
2018-03-01T18:43:17.552Z,15.77
2018-03-01T18:45:45.199Z,13.63
2018-03-01T18:48:12.732Z,14.63
2018-03-01T18:50:40.715Z,15.30
2018-03-01T18:53:08.250Z,14.37
2018-03-01T18:55:36.194Z,15.67
2018-03-01T18:58:03.744Z,18.73
2018-03-01T19:00:31.373Z,15.20
2018-03-01T19:02:58.929Z,17.27
2018-03-01T19:05:26.471Z,14.73
2018-03-01T19:07:54.034Z,14.43
2018-03-01T19:10:21.559Z,18.33
2018-03-01T19:12:49.610Z,15.47
2018-03-01T19:15:17.188Z,17.27
2018-03-01T19:17:45.234Z,14.77
2018-03-01T19:20:12.743Z,15.90
2018-03-01T19:22:40.422Z,15.33
2018-03-01T19:25:07.940Z,16.97
2018-03-01T19:27:35.896Z,16.17
2018-03-01T19:30:03.527Z,17.60
2018-03-01T19:32:31.478Z,14.40
2018-03-01T19:34:59.096Z,15.90
2018-03-01T19:37:27.060Z,15.13
2018-03-01T19:39:54.984Z,19.63
2018-03-01T19:42:22.522Z,15.67
2018-03-01T19:44:50.040Z,17.73
2018-03-01T19:47:17.603Z,15.07
2018-03-01T19:49:45.613Z,17.23
2018-03-01T19:52:13.151Z,13.03
2018-03-01T19:54:40.724Z,16.50
2018-03-01T19:57:08.268Z,14.27
2018-03-01T19:59:36.432Z,18.40
2018-03-01T20:02:03.988Z,13.53
2018-03-01T20:04:31.941Z,18.73
2018-03-01T20:06:59.880Z,18.13
2018-03-01T20:09:27.414Z,16.33
2018-03-01T20:11:54.957Z,13.73
2018-03-01T20:14:22.543Z,20.03
2018-03-01T20:16:50.112Z,14.57
2018-03-01T20:19:17.628Z,17.47
2018-03-01T20:21:45.596Z,14.77
2018-03-01T20:24:13.139Z,19.27
2018-03-01T20:26:41.052Z,16.23
2018-03-01T20:29:08.586Z,18.37
2018-03-01T20:31:36.099Z,14.30
2018-03-01T20:34:03.635Z,20.70
2018-03-01T20:36:31.155Z,18.53
2018-03-01T20:38:58.696Z,13.40
2018-03-01T20:41:26.623Z,18.10
2018-03-01T20:43:54.183Z,15.20
2018-03-01T20:46:21.705Z,19.20
2018-03-01T20:48:49.248Z,15.20
2018-03-01T20:51:17.218Z,18.87
2018-03-01T20:53:44.776Z,15.37
2018-03-01T20:56:12.355Z,19.23
2018-03-01T20:58:39.912Z,14.57
2018-03-01T21:01:07.427Z,20.90
2018-03-01T21:03:35.372Z,14.33
2018-03-01T21:06:02.896Z,17.93
2018-03-01T21:08:30.441Z,13.90
2018-03-01T21:10:57.953Z,16.47
2018-03-01T21:13:25.472Z,16.40
2018-03-01T21:15:53.000Z,19.27
2018-03-01T21:18:20.585Z,16.10
2018-03-01T21:20:48.123Z,18.03
2018-03-01T21:23:16.023Z,15.00
2018-03-01T21:25:43.568Z,20.30
2018-03-01T21:28:11.089Z,17.83
2018-03-01T21:30:39.016Z,21.80
2018-03-01T21:33:06.535Z,19.47
2018-03-01T21:35:34.465Z,19.77
2018-03-01T21:38:02.145Z,16.37
2018-03-01T21:40:30.072Z,19.03
2018-03-01T21:42:57.612Z,14.40
2018-03-01T21:45:25.143Z,19.77
2018-03-01T21:47:52.663Z,19.97
2018-03-01T21:50:20.215Z,16.20
2018-03-01T21:52:47.727Z,20.57
2018-03-01T21:55:15.276Z,15.77
2018-03-01T21:57:42.811Z,20.47
2018-03-01T22:00:10.737Z,16.20
2018-03-01T22:02:38.279Z,15.93
2018-03-01T22:05:05.815Z,18.67
2018-03-01T22:07:33.379Z,19.13
2018-03-01T22:10:00.923Z,14.97
2018-03-01T22:12:28.837Z,18.43
2018-03-01T22:14:56.373Z,17.17
2018-03-01T22:17:23.934Z,19.20
2018-03-01T22:19:51.463Z,15.43
2018-03-01T22:22:19.372Z,20.23
2018-03-01T22:24:46.907Z,20.20
2018-03-01T22:27:14.492Z,16.10
2018-03-01T22:29:42.039Z,20.03
2018-03-01T22:32:09.543Z,17.67
2018-03-01T22:34:37.073Z,19.80
2018-03-01T22:37:04.601Z,19.80
2018-03-01T22:39:32.140Z,17.20
2018-03-01T22:42:00.051Z,21.67
2018-03-01T22:44:27.708Z,15.50
2018-03-01T22:46:55.231Z,18.20
2018-03-01T22:49:22.764Z,19.17
2018-03-01T22:51:50.373Z,20.50
2018-03-01T22:54:18.247Z,18.33
2018-03-01T22:56:45.807Z,20.20
2018-03-01T22:59:13.320Z,17.07
2018-03-01T23:01:41.248Z,23.10
2018-03-01T23:04:08.772Z,21.10
2018-03-01T23:06:36.299Z,15.07
2018-03-01T23:09:04.223Z,20.40
2018-03-01T23:11:31.764Z,15.43
2018-03-01T23:13:59.372Z,21.23
2018-03-01T23:16:26.900Z,17.37
2018-03-01T23:18:54.429Z,16.77
2018-03-01T23:21:21.976Z,15.07
2018-03-01T23:23:49.496Z,15.77
2018-03-01T23:26:17.036Z,16.00
2018-03-01T23:28:44.568Z,18.07
2018-03-01T23:31:12.104Z,17.93
2018-03-01T23:33:39.621Z,20.13
2018-03-01T23:36:07.153Z,18.20
2018-03-01T23:38:34.664Z,15.00
2018-03-01T23:41:02.601Z,17.80
2018-03-01T23:43:30.211Z,16.20
2018-03-01T23:45:57.756Z,20.53
2018-03-01T23:48:25.663Z,22.47
2018-03-01T23:50:53.220Z,20.17
2018-03-01T23:53:20.760Z,18.70
2018-03-01T23:55:48.310Z,18.63
2018-03-01T23:58:15.832Z,21.23
